createdAt,value
2018-07-30T00:01:12.867Z,83.40
2018-07-30T00:03:41.326Z,83.30
2018-07-30T00:06:09.767Z,83.40
2018-07-30T00:08:38.273Z,83.40
2018-07-30T00:11:07.314Z,83.40
2018-07-30T00:13:35.777Z,83.50
2018-07-30T00:16:04.282Z,83.50
2018-07-30T00:18:33.608Z,83.60
2018-07-30T00:21:02.127Z,83.60
2018-07-30T00:23:30.604Z,83.60
2018-07-30T00:25:59.049Z,83.70
2018-07-30T00:28:27.524Z,83.70
2018-07-30T00:30:56.018Z,83.50
2018-07-30T00:33:24.568Z,83.40
2018-07-30T00:35:53.144Z,84.30
2018-07-30T00:38:22.332Z,84.00
2018-07-30T00:40:50.808Z,84.40
2018-07-30T00:43:19.271Z,84.50
2018-07-30T00:45:47.725Z,84.60
2018-07-30T00:48:16.244Z,84.60
2018-07-30T00:50:44.668Z,84.70
2018-07-30T00:55:41.305Z,84.80
2018-07-30T00:58:09.772Z,84.80
2018-07-30T01:00:38.268Z,85.10
2018-07-30T01:03:07.242Z,84.90
2018-07-30T01:05:35.719Z,85.00
2018-07-30T01:08:04.166Z,85.10
2018-07-30T01:10:33.376Z,85.10
2018-07-30T01:13:01.895Z,85.10
2018-07-30T01:15:30.320Z,85.10
2018-07-30T01:17:58.901Z,85.10
2018-07-30T01:20:27.441Z,85.20
2018-07-30T01:25:24.082Z,85.40
2018-07-30T01:27:52.557Z,85.30
2018-07-30T01:30:21.129Z,85.40
2018-07-30T01:32:50.278Z,86.10
2018-07-30T01:35:19.693Z,85.40
2018-07-30T01:37:48.283Z,85.60
2018-07-30T01:40:17.001Z,85.60
2018-07-30T01:42:45.509Z,85.60
2018-07-30T01:45:14.014Z,85.70
2018-07-30T01:47:42.491Z,85.80
2018-07-30T01:50:11.078Z,86.00
2018-07-30T01:52:39.558Z,86.00
2018-07-30T01:55:08.044Z,86.10
2018-07-30T01:57:36.562Z,86.40
2018-07-30T02:00:05.785Z,86.50
2018-07-30T02:02:38.501Z,86.70
2018-07-30T02:05:06.979Z,87.00
2018-07-30T02:07:35.519Z,87.30
2018-07-30T02:10:03.999Z,87.30
2018-07-30T02:12:32.650Z,87.50
2018-07-30T02:15:01.238Z,87.70
2018-07-30T02:17:29.760Z,87.80
2018-07-30T02:19:58.254Z,87.90
2018-07-30T02:22:26.826Z,88.10
2018-07-30T02:27:23.646Z,88.40
2018-07-30T02:29:52.062Z,88.50
2018-07-30T02:32:20.550Z,88.70
2018-07-30T02:34:49.092Z,88.70
2018-07-30T02:37:17.658Z,88.90
2018-07-30T02:39:46.848Z,89.00
2018-07-30T02:42:15.298Z,89.20
2018-07-30T02:44:43.722Z,89.40
2018-07-30T02:47:12.172Z,89.50
2018-07-30T02:49:40.597Z,89.70
2018-07-30T02:52:09.137Z,89.80
2018-07-30T02:54:37.593Z,90.00
2018-07-30T02:57:06.048Z,90.00
2018-07-30T02:59:34.500Z,90.10
2018-07-30T03:02:03.005Z,90.10
2018-07-30T03:04:31.421Z,90.20
2018-07-30T03:06:59.897Z,90.20
2018-07-30T03:09:28.509Z,90.20
2018-07-30T03:11:56.919Z,90.30
2018-07-30T03:14:25.391Z,90.30
2018-07-30T03:16:53.848Z,90.40
2018-07-30T03:19:22.322Z,90.40
2018-07-30T03:21:56.893Z,90.50
2018-07-30T03:24:26.277Z,90.50
2018-07-30T03:26:54.817Z,90.60
2018-07-30T03:29:23.328Z,90.60
2018-07-30T03:31:52.302Z,90.70
2018-07-30T03:34:20.789Z,90.70
2018-07-30T03:36:49.342Z,90.70
2018-07-30T03:39:17.828Z,90.80
2018-07-30T03:41:46.326Z,90.90
2018-07-30T03:44:14.830Z,90.90
2018-07-30T03:46:44.067Z,90.90
2018-07-30T03:49:12.591Z,90.90
2018-07-30T03:51:41.073Z,91.00
2018-07-30T03:54:09.629Z,91.00
2018-07-30T03:56:38.124Z,91.00
2018-07-30T03:59:06.708Z,91.00
2018-07-30T04:01:35.224Z,91.00
2018-07-30T04:04:03.744Z,91.00
2018-07-30T04:06:32.309Z,91.00
2018-07-30T04:09:00.785Z,91.10
2018-07-30T04:11:29.339Z,91.10
2018-07-30T04:16:25.977Z,91.20
2018-07-30T04:18:54.649Z,91.30
2018-07-30T04:21:23.525Z,91.30
2018-07-30T04:23:51.956Z,91.40
2018-07-30T04:26:20.589Z,91.50
2018-07-30T04:28:49.194Z,91.60
2018-07-30T04:31:17.705Z,91.60
2018-07-30T04:33:46.226Z,91.60
2018-07-30T04:36:14.722Z,91.60
2018-07-30T04:38:43.150Z,91.70
2018-07-30T04:41:12.334Z,91.70
2018-07-30T04:43:40.892Z,91.70
2018-07-30T04:46:09.315Z,91.70
2018-07-30T04:48:37.785Z,91.70
2018-07-30T04:51:06.400Z,91.70
2018-07-30T04:53:34.914Z,91.80
2018-07-30T04:56:03.416Z,91.80
2018-07-30T04:58:31.903Z,91.90
2018-07-30T05:01:00.376Z,92.00
2018-07-30T05:05:57.074Z,92.10
2018-07-30T05:08:25.571Z,92.10
2018-07-30T05:10:54.107Z,92.10
2018-07-30T05:13:22.552Z,92.10
2018-07-30T05:15:51.023Z,92.10
2018-07-30T05:18:20.226Z,92.10
2018-07-30T05:20:48.728Z,92.10
2018-07-30T05:23:17.265Z,91.90
2018-07-30T05:25:46.098Z,92.00
2018-07-30T05:28:14.597Z,92.10
2018-07-30T05:30:43.228Z,92.00
2018-07-30T05:33:11.725Z,92.10
2018-07-30T05:35:40.434Z,92.40
2018-07-30T05:38:08.998Z,92.70
2018-07-30T05:40:37.598Z,92.60
2018-07-30T05:43:06.026Z,92.60
2018-07-30T05:45:34.473Z,92.40
2018-07-30T05:48:03.014Z,92.50
2018-07-30T05:50:31.579Z,92.50
2018-07-30T05:53:00.092Z,92.50
2018-07-30T05:55:28.707Z,92.70
2018-07-30T05:57:57.237Z,92.70
2018-07-30T06:00:26.253Z,92.70
2018-07-30T06:02:55.447Z,92.50
2018-07-30T06:05:23.988Z,92.40
2018-07-30T06:07:52.445Z,92.40
2018-07-30T06:10:21.000Z,92.30
2018-07-30T06:12:49.498Z,92.30
2018-07-30T06:15:18.048Z,92.30
2018-07-30T06:17:46.536Z,92.20
2018-07-30T06:20:14.987Z,92.30
2018-07-30T06:22:43.472Z,92.10
2018-07-30T06:25:11.949Z,92.10
2018-07-30T06:27:41.871Z,92.10
2018-07-30T06:30:10.422Z,91.90
2018-07-30T06:32:39.230Z,91.80
2018-07-30T06:35:08.123Z,91.80
2018-07-30T06:37:36.883Z,92.00
2018-07-30T06:40:05.597Z,91.80
2018-07-30T06:42:34.032Z,91.60
2018-07-30T06:45:02.518Z,91.50
2018-07-30T06:47:31.101Z,91.70
2018-07-30T06:49:59.629Z,91.50
2018-07-30T06:52:28.706Z,91.30
2018-07-30T06:54:57.189Z,91.30
2018-07-30T06:57:25.664Z,91.10
2018-07-30T06:59:54.205Z,91.10
2018-07-30T07:02:22.617Z,91.00
2018-07-30T07:04:51.136Z,90.90
2018-07-30T07:07:19.631Z,91.10
2018-07-30T07:09:48.097Z,91.30
2018-07-30T07:12:16.569Z,91.00
2018-07-30T07:14:45.057Z,91.00
2018-07-30T07:17:14.001Z,90.90
2018-07-30T07:22:10.845Z,91.80
2018-07-30T07:24:39.381Z,90.90
2018-07-30T07:27:07.969Z,91.20
2018-07-30T07:29:36.492Z,92.60
2018-07-30T07:32:05.367Z,92.30
2018-07-30T07:34:33.791Z,92.80
2018-07-30T07:37:02.238Z,90.80
2018-07-30T07:39:30.785Z,90.20
2018-07-30T07:41:59.370Z,88.40
2018-07-30T07:44:27.904Z,87.30
2018-07-30T07:46:56.753Z,87.30
2018-07-30T07:49:25.310Z,87.20
2018-07-30T07:51:53.782Z,86.70
2018-07-30T07:54:22.264Z,87.10
2018-07-30T07:56:50.729Z,87.00
2018-07-30T07:59:19.358Z,86.20
2018-07-30T08:01:47.844Z,84.70
2018-07-30T08:04:16.351Z,84.30
2018-07-30T08:06:44.780Z,83.70
2018-07-30T08:09:13.277Z,84.00
2018-07-30T08:11:42.546Z,82.70
2018-07-30T08:14:11.447Z,81.70
2018-07-30T08:16:39.919Z,84.10
2018-07-30T08:19:08.365Z,82.50
2018-07-30T08:21:36.841Z,81.40
2018-07-30T08:24:05.483Z,85.20
2018-07-30T08:26:33.940Z,82.40
2018-07-30T08:29:02.483Z,83.00
2018-07-30T08:33:59.582Z,82.80
2018-07-30T08:36:28.032Z,83.60
2018-07-30T08:38:56.522Z,80.90
2018-07-30T08:41:25.073Z,82.60
2018-07-30T08:43:53.495Z,80.00
2018-07-30T08:46:21.936Z,77.40
2018-07-30T08:48:50.436Z,77.20
2018-07-30T08:51:19.438Z,78.80
2018-07-30T08:53:47.885Z,75.90
2018-07-30T08:56:16.425Z,77.80
2018-07-30T08:58:44.926Z,76.30
2018-07-30T09:01:13.381Z,75.20
2018-07-30T09:03:41.859Z,76.00
2018-07-30T09:06:10.484Z,75.10
2018-07-30T09:08:38.941Z,72.60
2018-07-30T09:11:07.390Z,73.50
2018-07-30T09:13:35.831Z,72.30
2018-07-30T09:16:04.371Z,71.40
2018-07-30T09:18:32.825Z,69.30
2018-07-30T09:21:01.263Z,68.20
2018-07-30T09:23:29.712Z,67.90
2018-07-30T09:25:58.265Z,69.10
2018-07-30T09:28:26.705Z,67.80
2018-07-30T09:30:55.145Z,68.30
2018-07-30T09:33:23.606Z,67.30
2018-07-30T09:35:52.238Z,70.90
2018-07-30T09:38:20.709Z,68.20
2018-07-30T09:40:49.130Z,71.20
2018-07-30T09:43:17.570Z,72.70
2018-07-30T09:45:46.036Z,74.80
2018-07-30T09:48:14.519Z,66.50
2018-07-30T09:50:43.048Z,68.80
2018-07-30T09:53:11.562Z,68.20
2018-07-30T09:55:40.078Z,61.60
2018-07-30T09:58:08.482Z,61.40
2018-07-30T10:00:42.404Z,60.80
2018-07-30T10:03:10.831Z,61.60
2018-07-30T10:05:39.321Z,62.70
2018-07-30T10:08:07.792Z,59.30
2018-07-30T10:10:36.221Z,57.00
2018-07-30T10:13:04.679Z,57.50
2018-07-30T10:15:33.186Z,55.20
2018-07-30T10:18:01.733Z,54.50
2018-07-30T10:20:30.120Z,55.30
2018-07-30T10:22:58.559Z,53.70
2018-07-30T10:25:27.002Z,52.70
2018-07-30T10:27:55.496Z,54.60
2018-07-30T10:30:24.008Z,53.60
2018-07-30T10:32:58.905Z,53.40
2018-07-30T10:35:27.370Z,54.30
2018-07-30T10:37:57.124Z,55.00
2018-07-30T10:40:25.781Z,53.70
2018-07-30T10:42:54.780Z,53.20
2018-07-30T10:45:23.494Z,52.20
2018-07-30T10:47:51.990Z,52.70
2018-07-30T10:50:20.590Z,55.30
2018-07-30T10:55:18.488Z,53.50
2018-07-30T10:57:47.084Z,53.10
2018-07-30T11:00:15.981Z,53.20
2018-07-30T11:02:44.914Z,52.40
2018-07-30T11:05:13.676Z,53.00
2018-07-30T11:07:42.197Z,52.60
2018-07-30T11:10:10.681Z,52.60
2018-07-30T11:12:39.213Z,52.70
2018-07-30T11:15:07.620Z,53.00
2018-07-30T11:17:36.123Z,53.50
2018-07-30T11:20:04.783Z,53.90
2018-07-30T11:22:33.506Z,55.30
2018-07-30T11:25:02.002Z,56.40
2018-07-30T11:27:31.185Z,57.20
2018-07-30T11:29:59.703Z,53.00
2018-07-30T11:32:28.192Z,51.80
2018-07-30T11:34:56.654Z,51.20
2018-07-30T11:37:25.790Z,51.00
2018-07-30T11:39:54.670Z,49.90
2018-07-30T11:42:23.276Z,50.40
2018-07-30T11:44:51.753Z,50.70
2018-07-30T11:47:20.432Z,51.50
2018-07-30T11:49:48.894Z,51.10
2018-07-30T11:52:17.332Z,49.50
2018-07-30T11:54:45.826Z,49.10
2018-07-30T11:57:14.471Z,48.40
2018-07-30T11:59:42.948Z,48.70
2018-07-30T12:02:11.479Z,48.30
2018-07-30T12:04:40.289Z,50.90
2018-07-30T12:07:08.884Z,48.10
2018-07-30T12:09:37.358Z,48.90
2018-07-30T12:12:05.882Z,48.10
2018-07-30T12:14:34.349Z,47.10
2018-07-30T12:17:02.898Z,45.60
2018-07-30T12:19:31.408Z,42.70
2018-07-30T12:21:59.905Z,43.90
2018-07-30T12:24:28.365Z,45.00
2018-07-30T12:26:57.021Z,45.40
2018-07-30T12:29:25.569Z,44.60
2018-07-30T12:31:54.004Z,44.60
2018-07-30T12:34:22.537Z,44.30
2018-07-30T12:36:51.003Z,44.50
2018-07-30T12:39:19.570Z,45.00
2018-07-30T12:41:48.022Z,44.90
2018-07-30T12:44:16.578Z,45.20
2018-07-30T12:46:45.025Z,45.40
2018-07-30T12:49:13.467Z,44.90
2018-07-30T12:51:41.988Z,46.10
2018-07-30T12:54:10.484Z,46.80
2018-07-30T12:56:38.937Z,45.60
2018-07-30T12:59:07.474Z,45.80
2018-07-30T13:01:35.924Z,47.20
2018-07-30T13:04:04.406Z,47.70
2018-07-30T13:06:32.857Z,44.80
2018-07-30T13:09:01.338Z,45.50
2018-07-30T13:11:29.925Z,46.60
2018-07-30T13:13:58.363Z,43.40
2018-07-30T13:16:26.805Z,42.50
2018-07-30T13:18:55.350Z,42.00
2018-07-30T13:21:23.769Z,42.80
2018-07-30T13:23:52.240Z,43.40
2018-07-30T13:26:21.367Z,43.90
2018-07-30T13:28:49.812Z,45.30
2018-07-30T13:31:18.393Z,45.80
2018-07-30T13:33:46.816Z,44.30
2018-07-30T13:36:15.587Z,42.70
2018-07-30T13:38:44.174Z,41.90
2018-07-30T13:41:12.700Z,40.30
2018-07-30T13:43:41.183Z,40.70
2018-07-30T13:46:09.608Z,40.20
2018-07-30T13:48:38.196Z,38.00
2018-07-30T13:51:06.940Z,38.50
2018-07-30T13:53:35.425Z,38.50
2018-07-30T13:56:04.009Z,38.70
2018-07-30T13:58:32.487Z,39.40
2018-07-30T14:01:01.473Z,40.00
2018-07-30T14:03:29.988Z,40.70
2018-07-30T14:05:58.429Z,41.40
2018-07-30T14:08:26.844Z,42.20
2018-07-30T14:10:55.394Z,42.80
2018-07-30T14:13:23.838Z,43.20
2018-07-30T14:15:52.294Z,43.70
2018-07-30T14:18:21.049Z,44.10
2018-07-30T14:20:49.446Z,44.50
2018-07-30T14:23:17.905Z,44.80
2018-07-30T14:25:46.348Z,45.00
2018-07-30T14:28:14.840Z,45.40
2018-07-30T14:30:43.434Z,45.70
2018-07-30T14:33:12.025Z,46.10
2018-07-30T14:35:40.650Z,46.70
2018-07-30T14:38:09.299Z,47.50
2018-07-30T14:40:38.043Z,48.10
2018-07-30T14:43:06.541Z,47.70
2018-07-30T14:45:36.180Z,48.20
2018-07-30T14:48:05.456Z,48.70
2018-07-30T14:50:34.064Z,49.30
2018-07-30T14:53:02.560Z,49.80
2018-07-30T14:55:31.757Z,50.30
2018-07-30T14:58:00.326Z,50.70
2018-07-30T15:00:28.933Z,50.80
2018-07-30T15:02:57.480Z,51.10
2018-07-30T15:05:26.545Z,51.30
2018-07-30T15:07:55.071Z,51.70
2018-07-30T15:10:23.523Z,52.40
2018-07-30T15:12:52.282Z,52.50
2018-07-30T15:15:20.794Z,52.80
2018-07-30T15:17:49.767Z,52.90
2018-07-30T15:20:18.969Z,53.20
2018-07-30T15:22:47.457Z,53.30
2018-07-30T15:25:16.007Z,53.60
2018-07-30T15:27:44.535Z,53.80
2018-07-30T15:30:13.121Z,55.30
2018-07-30T15:32:41.621Z,53.90
2018-07-30T15:35:10.150Z,51.20
2018-07-30T15:37:41.612Z,51.10
2018-07-30T15:40:10.105Z,51.80
2018-07-30T15:42:38.659Z,49.90
2018-07-30T15:45:07.148Z,49.60
2018-07-30T15:47:35.793Z,50.20
2018-07-30T15:50:06.289Z,51.00
2018-07-30T15:52:34.849Z,51.20
2018-07-30T15:55:03.393Z,51.60
2018-07-30T15:57:32.430Z,52.40
2018-07-30T16:00:01.150Z,52.90
2018-07-30T16:02:29.777Z,53.30
2018-07-30T16:05:00.351Z,53.60
2018-07-30T16:07:28.831Z,54.00
2018-07-30T16:12:31.170Z,54.10
2018-07-30T16:14:59.601Z,54.30
2018-07-30T16:17:28.186Z,54.70
2018-07-30T16:19:57.700Z,55.20
2018-07-30T16:22:27.230Z,54.80
2018-07-30T16:27:29.568Z,54.30
2018-07-30T16:32:32.000Z,53.60
2018-07-30T16:35:01.118Z,54.00
2018-07-30T16:37:29.635Z,53.70
2018-07-30T16:42:31.939Z,54.10
2018-07-30T16:45:00.556Z,54.10
2018-07-30T16:47:29.094Z,54.30
2018-07-30T16:49:57.865Z,54.40
2018-07-30T16:55:00.575Z,54.90
2018-07-30T16:57:29.193Z,55.30
2018-07-30T16:59:57.800Z,55.60
2018-07-30T17:02:26.327Z,56.00
2018-07-30T17:04:55.071Z,56.20
2018-07-30T17:07:23.957Z,56.50
2018-07-30T17:09:52.435Z,56.50
2018-07-30T17:12:21.136Z,56.80
2018-07-30T17:14:49.742Z,57.00
2018-07-30T17:17:19.134Z,57.10
2018-07-30T17:19:47.983Z,57.20
2018-07-30T17:22:16.500Z,56.90
2018-07-30T17:24:45.595Z,57.40
2018-07-30T17:27:15.328Z,57.60
2018-07-30T17:29:46.536Z,58.60
2018-07-30T17:32:15.933Z,59.10
2018-07-30T17:34:44.671Z,60.30
2018-07-30T17:37:13.610Z,60.00
2018-07-30T17:39:42.229Z,60.70
2018-07-30T17:42:11.396Z,61.30
2018-07-30T17:44:40.061Z,62.10
2018-07-30T17:47:10.121Z,62.20
2018-07-30T17:49:39.190Z,62.40
2018-07-30T17:52:09.527Z,62.60
2018-07-30T17:54:38.621Z,64.00
2018-07-30T17:57:08.607Z,65.40
2018-07-30T17:59:37.126Z,67.10
2018-07-30T18:02:05.731Z,68.00
2018-07-30T18:04:34.300Z,68.80
2018-07-30T18:07:02.827Z,69.40
2018-07-30T18:09:31.343Z,70.50
2018-07-30T18:11:59.927Z,71.40
2018-07-30T18:16:56.594Z,72.90
2018-07-30T18:19:25.092Z,73.50
2018-07-30T18:21:53.662Z,73.80
2018-07-30T18:24:22.181Z,74.40
2018-07-30T18:29:19.026Z,76.00
2018-07-30T18:31:47.564Z,76.90
2018-07-30T18:34:16.085Z,76.80
2018-07-30T18:36:44.589Z,77.30
2018-07-30T18:39:13.211Z,77.60
2018-07-30T18:41:41.776Z,78.00
2018-07-30T18:44:10.310Z,78.10
2018-07-30T18:46:38.885Z,78.30
2018-07-30T18:49:08.023Z,78.90
2018-07-30T18:51:36.481Z,79.50
2018-07-30T18:54:05.101Z,80.20
2018-07-30T18:56:33.591Z,81.10
2018-07-30T18:59:02.106Z,82.00
2018-07-30T19:01:30.666Z,83.00
2018-07-30T19:03:59.336Z,84.10
2018-07-30T19:06:28.349Z,84.90
2018-07-30T19:08:57.032Z,85.90
2018-07-30T19:11:25.696Z,86.40
2018-07-30T19:13:54.144Z,87.30
2018-07-30T19:16:22.805Z,87.80
2018-07-30T19:18:51.546Z,88.10
2018-07-30T19:21:20.116Z,88.70
2018-07-30T19:23:48.807Z,89.40
2018-07-30T19:26:17.790Z,89.50
2018-07-30T19:28:46.375Z,89.70
2018-07-30T19:31:14.858Z,90.30
2018-07-30T19:33:43.618Z,90.20
2018-07-30T19:36:12.456Z,90.30
2018-07-30T19:38:40.989Z,90.60
2018-07-30T19:41:09.489Z,90.80
2018-07-30T19:43:38.356Z,91.10
2018-07-30T19:46:06.946Z,91.20
2018-07-30T19:48:35.757Z,91.50
2018-07-30T19:51:12.048Z,91.80
2018-07-30T19:53:42.060Z,91.80
2018-07-30T19:56:12.077Z,92.00
2018-07-30T19:58:42.061Z,92.30
2018-07-30T20:01:10.961Z,92.60
2018-07-30T20:03:39.766Z,92.60
2018-07-30T20:06:08.840Z,92.70
2018-07-30T20:08:37.885Z,93.10
2018-07-30T20:11:08.165Z,93.00
2018-07-30T20:13:38.195Z,93.20
2018-07-30T20:16:07.213Z,93.30
2018-07-30T20:18:36.195Z,93.50
2018-07-30T20:21:04.979Z,93.70
2018-07-30T20:23:34.993Z,94.00
2018-07-30T20:26:03.971Z,94.60
2018-07-30T20:28:32.563Z,94.80
2018-07-30T20:31:01.354Z,94.80
2018-07-30T20:33:30.284Z,95.00
2018-07-30T20:35:59.008Z,95.30
2018-07-30T20:38:27.674Z,95.50
2018-07-30T20:40:56.259Z,95.70
2018-07-30T20:43:24.833Z,96.00
2018-07-30T20:45:53.375Z,96.10
2018-07-30T20:48:21.978Z,96.40
2018-07-30T20:50:50.520Z,96.50
2018-07-30T20:53:19.152Z,96.50
2018-07-30T20:55:47.918Z,96.60
2018-07-30T20:58:16.503Z,96.70
2018-07-30T21:00:45.090Z,96.80
2018-07-30T21:03:13.615Z,97.00
2018-07-30T21:05:43.579Z,97.00
2018-07-30T21:08:13.554Z,97.30
2018-07-30T21:10:42.843Z,97.40
2018-07-30T21:13:11.320Z,97.60
2018-07-30T21:15:39.828Z,97.90
2018-07-30T21:18:08.416Z,98.10
2018-07-30T21:20:37.029Z,98.30
2018-07-30T21:23:05.676Z,98.30
2018-07-30T21:25:34.182Z,98.60
2018-07-30T21:28:03.730Z,98.90
2018-07-30T21:30:32.187Z,99.00
2018-07-30T21:33:01.575Z,99.20
2018-07-30T21:35:30.120Z,99.30
2018-07-30T21:37:58.631Z,99.60
2018-07-30T21:40:27.277Z,99.80
2018-07-30T21:42:55.787Z,99.70
2018-07-30T21:45:24.230Z,99.60
2018-07-30T21:47:53.403Z,99.80
2018-07-30T21:50:21.960Z,99.80
2018-07-30T21:52:50.450Z,99.90
2018-07-30T21:55:18.908Z,99.90
2018-07-30T21:57:47.427Z,99.90
2018-07-30T22:00:22.919Z,99.90
2018-07-30T22:02:52.085Z,99.90
2018-07-30T22:05:20.537Z,99.90
2018-07-30T22:07:54.913Z,99.90
2018-07-30T22:10:25.217Z,99.90
2018-07-30T22:12:54.436Z,99.90
2018-07-30T22:15:24.028Z,99.90
2018-07-30T22:17:53.266Z,99.90
2018-07-30T22:20:21.774Z,99.90
2018-07-30T22:22:50.271Z,99.90
2018-07-30T22:25:19.951Z,99.90
2018-07-30T22:27:48.553Z,99.90
2018-07-30T22:30:17.058Z,99.90
2018-07-30T22:32:45.478Z,99.90
2018-07-30T22:37:42.781Z,99.90
2018-07-30T22:40:11.299Z,99.90
2018-07-30T22:42:39.786Z,99.90
2018-07-30T22:45:08.278Z,99.90
2018-07-30T22:47:36.756Z,99.90
2018-07-30T22:50:05.237Z,99.90
2018-07-30T22:52:33.845Z,99.90
2018-07-30T22:55:02.446Z,99.90
2018-07-30T22:57:30.978Z,99.90
2018-07-30T22:59:59.538Z,99.90
2018-07-30T23:02:28.787Z,99.90
2018-07-30T23:04:57.252Z,99.90
2018-07-30T23:07:25.735Z,99.90
2018-07-30T23:09:54.260Z,99.90
2018-07-30T23:12:22.806Z,99.90
2018-07-30T23:14:51.279Z,99.90
2018-07-30T23:17:19.710Z,99.90
2018-07-30T23:19:48.306Z,99.90
2018-07-30T23:22:16.779Z,99.90
2018-07-30T23:24:45.922Z,99.90
2018-07-30T23:27:14.613Z,99.90
2018-07-30T23:29:43.054Z,99.90
2018-07-30T23:32:11.613Z,99.90
2018-07-30T23:34:40.627Z,99.90
2018-07-30T23:37:09.190Z,99.90
2018-07-30T23:39:37.564Z,99.90
2018-07-30T23:42:06.204Z,99.90
2018-07-30T23:44:34.694Z,99.90
2018-07-30T23:47:03.128Z,99.90
2018-07-30T23:49:31.561Z,99.90
2018-07-30T23:52:00.108Z,99.90
2018-07-30T23:54:28.535Z,99.90
2018-07-30T23:56:56.984Z,99.90
2018-07-30T23:59:25.418Z,99.90
